createdAt,value
2023-04-02T00:01:01.387Z,10.35
2023-04-02T00:03:45.593Z,10.75
2023-04-02T00:06:34.028Z,10.88
2023-04-02T00:09:22.693Z,8.70
2023-04-02T00:11:55.885Z,10.52
2023-04-02T00:14:29.333Z,9.23
2023-04-02T00:16:59.796Z,9.45
2023-04-02T00:19:45.132Z,10.55
2023-04-02T00:22:26.766Z,12.65
2023-04-02T00:24:56.509Z,12.70
2023-04-02T00:27:24.123Z,13.07
2023-04-02T00:29:54.136Z,14.90
2023-04-02T00:32:28.627Z,14.75
2023-04-02T00:34:56.966Z,16.27
2023-04-02T00:37:27.628Z,12.40
2023-04-02T00:40:07.151Z,11.45
2023-04-02T00:42:35.926Z,12.23
2023-04-02T00:45:04.272Z,13.20
2023-04-02T00:47:35.398Z,13.50
2023-04-02T00:50:11.716Z,13.52
2023-04-02T00:52:42.072Z,12.93
2023-04-02T00:55:27.184Z,11.15
2023-04-02T00:57:57.602Z,13.73
2023-04-02T01:00:33.463Z,14.40
2023-04-02T01:03:36.592Z,13.90
2023-04-02T01:06:11.475Z,14.25
2023-04-02T01:09:03.756Z,13.65
2023-04-02T01:12:08.761Z,14.75
2023-04-02T01:15:04.357Z,20.25
2023-04-02T01:18:00.438Z,20.52
2023-04-02T01:20:39.093Z,16.88
2023-04-02T01:23:13.447Z,16.90
2023-04-02T01:26:06.813Z,19.42
2023-04-02T01:28:39.152Z,18.40
2023-04-02T01:31:06.891Z,18.92
2023-04-02T01:33:35.474Z,22.23
2023-04-02T01:36:26.355Z,21.00
2023-04-02T01:39:19.734Z,19.23
2023-04-02T01:41:54.853Z,20.40
2023-04-02T01:44:30.240Z,23.42
2023-04-02T01:47:00.730Z,19.67
2023-04-02T01:49:28.523Z,16.40
2023-04-02T01:51:59.047Z,21.23
2023-04-02T01:54:32.085Z,21.08
2023-04-02T01:56:59.536Z,21.33
2023-04-02T01:59:26.972Z,20.50
2023-04-02T02:02:06.261Z,20.23
2023-04-02T02:04:36.475Z,19.55
2023-04-02T02:07:14.402Z,17.10
2023-04-02T02:09:44.319Z,19.25
2023-04-02T02:12:15.824Z,19.38
2023-04-02T02:14:48.421Z,16.15
2023-04-02T02:17:26.517Z,18.08
2023-04-02T02:19:59.010Z,18.70
2023-04-02T02:22:39.091Z,18.85
2023-04-02T02:25:12.771Z,17.88
2023-04-02T02:28:08.327Z,18.83
2023-04-02T02:30:49.215Z,14.23
2023-04-02T02:33:30.898Z,15.15
2023-04-02T02:36:30.800Z,15.80
2023-04-02T02:39:09.648Z,13.68
2023-04-02T02:41:50.293Z,14.82
2023-04-02T02:44:35.186Z,14.55
2023-04-02T02:47:42.058Z,14.25
2023-04-02T02:50:26.788Z,12.10
2023-04-02T02:52:57.968Z,14.27
2023-04-02T02:55:34.523Z,14.85
2023-04-02T02:58:10.759Z,12.77
2023-04-02T03:00:48.053Z,13.30
2023-04-02T03:03:26.494Z,10.65
2023-04-02T03:06:03.095Z,11.30
2023-04-02T03:08:42.358Z,11.55
2023-04-02T03:11:19.743Z,10.00
2023-04-02T03:13:50.303Z,9.50
2023-04-02T03:16:31.220Z,9.90
2023-04-02T03:19:14.475Z,9.82
2023-04-02T03:21:54.192Z,9.25
2023-04-02T03:24:39.418Z,9.70
2023-04-02T03:27:31.936Z,8.27
2023-04-02T03:30:18.428Z,10.32
2023-04-02T03:32:51.160Z,8.00
2023-04-02T03:35:28.129Z,8.55
2023-04-02T03:38:22.745Z,11.05
2023-04-02T03:41:01.886Z,8.93
2023-04-02T03:43:56.290Z,8.85
2023-04-02T03:46:40.788Z,8.55
2023-04-02T03:49:24.240Z,9.48
2023-04-02T03:52:08.027Z,8.05
2023-04-02T03:54:38.574Z,7.57
2023-04-02T03:57:22.434Z,9.85
2023-04-02T04:00:19.636Z,8.82
2023-04-02T04:02:57.560Z,9.20
2023-04-02T04:05:30.479Z,8.52
2023-04-02T04:08:06.630Z,8.60
2023-04-02T04:10:35.707Z,8.50
2023-04-02T04:13:08.760Z,8.80
2023-04-02T04:15:54.057Z,8.25
2023-04-02T04:18:35.096Z,7.25
2023-04-02T04:21:16.556Z,8.18
2023-04-02T04:23:51.287Z,8.00
2023-04-02T04:26:41.201Z,6.53
2023-04-02T04:29:34.371Z,7.53
2023-04-02T04:32:21.354Z,8.30
2023-04-02T04:34:53.853Z,8.45
2023-04-02T04:37:35.237Z,8.13
2023-04-02T04:40:20.555Z,7.78
2023-04-02T04:42:53.182Z,6.75
2023-04-02T04:45:38.941Z,8.13
2023-04-02T04:48:26.829Z,7.35
2023-04-02T04:51:19.537Z,8.63
2023-04-02T04:53:51.085Z,8.40
2023-04-02T04:56:25.953Z,8.90
2023-04-02T04:59:25.824Z,7.57
2023-04-02T05:02:17.440Z,8.30
2023-04-02T05:04:51.666Z,7.50
2023-04-02T05:07:27.786Z,8.60
2023-04-02T05:10:13.685Z,8.70
2023-04-02T05:12:50.768Z,10.40
2023-04-02T05:15:42.146Z,8.50
2023-04-02T05:18:15.032Z,7.85
2023-04-02T05:20:56.825Z,8.00
2023-04-02T05:23:45.188Z,9.05
2023-04-02T05:26:22.061Z,9.70
2023-04-02T05:29:00.982Z,7.55
2023-04-02T05:31:49.651Z,6.70
2023-04-02T05:34:26.228Z,8.07
2023-04-02T05:36:55.719Z,8.50
2023-04-02T05:39:24.795Z,10.95
2023-04-02T05:42:06.474Z,7.45
2023-04-02T05:45:08.780Z,7.65
2023-04-02T05:47:41.084Z,9.25
2023-04-02T05:50:25.403Z,7.47
2023-04-02T05:53:10.440Z,8.55
2023-04-02T05:56:05.156Z,9.52
2023-04-02T05:58:43.937Z,6.93
2023-04-02T06:01:47.427Z,7.65
2023-04-02T06:04:43.783Z,9.93
2023-04-02T06:07:23.685Z,8.38
2023-04-02T06:10:07.452Z,9.10
2023-04-02T06:12:54.218Z,7.28
2023-04-02T06:15:23.754Z,6.72
2023-04-02T06:18:01.694Z,7.63
2023-04-02T06:20:29.502Z,7.90
2023-04-02T06:23:02.254Z,7.22
2023-04-02T06:25:35.642Z,7.32
2023-04-02T06:28:07.155Z,6.68
2023-04-02T06:30:39.130Z,7.30
2023-04-02T06:33:08.076Z,11.65
2023-04-02T06:35:40.790Z,7.15
2023-04-02T06:38:18.484Z,6.53
2023-04-02T06:41:01.805Z,7.45
2023-04-02T06:43:44.626Z,6.97
2023-04-02T06:46:37.153Z,11.45
2023-04-02T06:49:21.719Z,5.88
2023-04-02T06:51:54.180Z,5.72
2023-04-02T06:54:21.843Z,6.30
2023-04-02T06:56:56.440Z,5.65
2023-04-02T06:59:36.469Z,6.28
2023-04-02T07:02:26.108Z,7.25
2023-04-02T07:04:58.691Z,6.57
2023-04-02T07:07:26.134Z,7.22
2023-04-02T07:09:53.477Z,9.32
2023-04-02T07:12:24.826Z,8.57
2023-04-02T07:14:53.216Z,7.50
2023-04-02T07:17:22.699Z,8.90
2023-04-02T07:19:50.025Z,8.48
2023-04-02T07:22:20.630Z,8.55
2023-04-02T07:24:52.465Z,8.13
2023-04-02T07:27:19.826Z,9.90
2023-04-02T07:29:46.865Z,9.65
2023-04-02T07:32:14.398Z,8.65
2023-04-02T07:34:41.828Z,10.32
2023-04-02T07:37:14.549Z,12.57
2023-04-02T07:39:41.865Z,11.13
2023-04-02T07:42:09.834Z,14.35
2023-04-02T07:44:36.852Z,10.25
2023-04-02T07:47:04.289Z,10.68
2023-04-02T07:49:31.337Z,9.27
2023-04-02T07:51:59.039Z,10.75
2023-04-02T07:54:27.174Z,16.77
2023-04-02T07:56:54.645Z,13.63
2023-04-02T07:59:21.941Z,13.13
2023-04-02T08:01:49.440Z,11.55
2023-04-02T08:04:21.722Z,13.38
2023-04-02T08:06:50.425Z,11.98
2023-04-02T08:09:17.900Z,15.93
2023-04-02T08:11:46.753Z,15.98
2023-04-02T08:14:14.675Z,13.48
2023-04-02T08:16:53.737Z,14.15
2023-04-02T08:19:21.522Z,16.85
2023-04-02T08:21:51.691Z,13.70
2023-04-02T08:24:19.389Z,9.77
2023-04-02T08:26:48.595Z,9.57
2023-04-02T08:29:15.929Z,12.40
2023-04-02T08:31:43.231Z,12.77
2023-04-02T08:34:10.463Z,13.02
2023-04-02T08:36:40.421Z,13.98
2023-04-02T08:39:13.431Z,9.07
2023-04-02T08:41:51.309Z,9.93
2023-04-02T08:44:21.227Z,9.73
2023-04-02T08:47:17.372Z,10.13
2023-04-02T08:50:02.164Z,6.65
2023-04-02T08:52:37.313Z,7.00
2023-04-02T08:55:16.980Z,8.38
2023-04-02T08:58:13.169Z,11.30
2023-04-02T09:00:43.919Z,13.20
2023-04-02T09:03:19.802Z,8.27
2023-04-02T09:05:49.587Z,12.40
2023-04-02T09:08:22.158Z,9.70
2023-04-02T09:11:00.648Z,7.72
2023-04-02T09:13:31.173Z,7.82
2023-04-02T09:16:23.166Z,20.70
2023-04-02T09:18:53.990Z,20.85
2023-04-02T09:21:21.116Z,11.80
2023-04-02T09:23:49.773Z,8.48
2023-04-02T09:26:27.220Z,8.73
2023-04-02T09:29:12.449Z,10.48
2023-04-02T09:32:02.561Z,10.20
2023-04-02T09:34:36.121Z,8.65
2023-04-02T09:37:16.327Z,7.68
2023-04-02T09:39:43.855Z,12.43
2023-04-02T09:42:31.211Z,13.15
2023-04-02T09:45:24.977Z,9.23
2023-04-02T09:47:54.010Z,12.02
2023-04-02T09:50:21.451Z,8.82
2023-04-02T09:52:49.736Z,8.60
2023-04-02T09:55:20.841Z,10.63
2023-04-02T09:57:49.553Z,10.75
2023-04-02T10:03:18.616Z,7.65
2023-04-02T10:05:47.417Z,10.25
2023-04-02T10:08:28.170Z,6.85
2023-04-02T10:10:58.778Z,12.05
2023-04-02T10:13:39.709Z,9.65
2023-04-02T10:16:16.680Z,9.40
2023-04-02T10:18:51.857Z,8.77
2023-04-02T10:21:27.261Z,7.60
2023-04-02T10:23:55.712Z,10.93
2023-04-02T10:26:45.015Z,8.52
2023-04-02T10:29:23.375Z,7.10
2023-04-02T10:32:07.077Z,6.45
2023-04-02T10:34:56.545Z,7.65
2023-04-02T10:37:42.419Z,6.38
2023-04-02T10:40:12.712Z,5.97
2023-04-02T10:42:52.036Z,10.23
2023-04-02T10:45:46.234Z,6.95
2023-04-02T10:48:26.981Z,6.85
2023-04-02T10:51:29.344Z,8.68
2023-04-02T10:54:03.216Z,7.28
2023-04-02T10:56:44.110Z,6.97
2023-04-02T10:59:26.214Z,7.43
2023-04-02T11:01:57.312Z,7.03
2023-04-02T11:04:33.363Z,6.32
2023-04-02T11:07:14.418Z,6.72
2023-04-02T11:09:46.738Z,6.35
2023-04-02T11:12:35.429Z,9.23
2023-04-02T11:15:19.050Z,7.35
2023-04-02T11:17:47.229Z,11.13
2023-04-02T11:20:48.217Z,11.75
2023-04-02T11:23:18.771Z,11.95
2023-04-02T11:25:47.338Z,8.55
2023-04-02T11:28:30.504Z,10.55
2023-04-02T11:30:58.172Z,15.20
2023-04-02T11:33:43.156Z,11.30
2023-04-02T11:36:50.027Z,11.55
2023-04-02T11:39:53.662Z,21.48
2023-04-02T11:42:25.032Z,9.60
2023-04-02T11:44:53.740Z,8.02
2023-04-02T11:47:24.224Z,9.68
2023-04-02T11:49:57.673Z,12.00
2023-04-02T11:52:38.399Z,11.70
2023-04-02T11:55:33.484Z,9.98
2023-04-02T11:59:01.053Z,13.10
2023-04-02T12:01:46.009Z,12.02
2023-04-02T12:04:25.401Z,10.60
2023-04-02T12:07:19.899Z,9.60
2023-04-02T12:09:55.061Z,10.23
2023-04-02T12:12:29.017Z,8.05
2023-04-02T12:15:00.184Z,12.13
2023-04-02T12:17:37.027Z,13.73
2023-04-02T12:20:29.905Z,6.75
2023-04-02T12:22:58.358Z,10.32
2023-04-02T12:25:40.374Z,13.18
2023-04-02T12:28:10.081Z,9.88
2023-04-02T12:30:38.738Z,12.70
2023-04-02T12:33:42.449Z,13.25
2023-04-02T12:36:14.588Z,9.45
2023-04-02T12:38:46.387Z,9.35
2023-04-02T12:41:24.544Z,11.40
2023-04-02T12:44:15.465Z,10.00
2023-04-02T12:46:44.716Z,12.15
2023-04-02T12:49:26.834Z,8.82
2023-04-02T12:51:55.056Z,10.75
2023-04-02T12:54:22.445Z,15.40
2023-04-02T12:56:50.764Z,10.55
2023-04-02T12:59:27.862Z,10.35
2023-04-02T13:02:00.856Z,10.48
2023-04-02T13:04:28.363Z,10.77
2023-04-02T13:06:56.409Z,12.88
2023-04-02T13:09:35.816Z,13.55
2023-04-02T13:12:03.796Z,12.68
2023-04-02T13:14:33.841Z,9.60
2023-04-02T13:17:01.267Z,13.90
2023-04-02T13:19:33.170Z,10.98
2023-04-02T13:22:02.918Z,8.18
2023-04-02T13:24:32.387Z,10.15
2023-04-02T13:27:01.610Z,11.95
2023-04-02T13:29:36.499Z,11.23
2023-04-02T13:32:11.699Z,12.35
2023-04-02T13:34:38.797Z,11.77
2023-04-02T13:37:06.299Z,8.95
2023-04-02T13:39:33.473Z,9.07
2023-04-02T13:42:03.491Z,8.90
2023-04-02T13:44:33.851Z,7.68
2023-04-02T13:47:01.529Z,7.47
2023-04-02T13:49:29.149Z,5.45
2023-04-02T13:51:59.523Z,9.10
2023-04-02T13:54:49.164Z,6.47
2023-04-02T13:57:17.472Z,6.05
2023-04-02T13:59:44.668Z,5.20
2023-04-02T14:02:22.112Z,13.23
2023-04-02T14:04:55.133Z,6.55
2023-04-02T14:07:38.104Z,7.88
2023-04-02T14:10:34.131Z,6.93
2023-04-02T14:13:29.353Z,8.43
2023-04-02T14:16:25.161Z,7.07
2023-04-02T14:19:24.954Z,6.13
2023-04-02T14:22:06.358Z,5.07
2023-04-02T14:25:17.698Z,6.03
2023-04-02T14:28:02.921Z,6.32
2023-04-02T14:30:33.272Z,5.80
2023-04-02T14:33:28.382Z,6.45
2023-04-02T14:36:13.949Z,5.38
2023-04-02T14:39:05.848Z,6.50
2023-04-02T14:41:35.966Z,5.28
2023-04-02T14:44:08.538Z,6.05
2023-04-02T14:46:38.098Z,8.55
2023-04-02T14:49:21.449Z,6.07
2023-04-02T14:51:59.558Z,6.70
2023-04-02T14:54:50.229Z,6.18
2023-04-02T14:57:29.678Z,7.55
2023-04-02T14:59:59.945Z,8.05
2023-04-02T15:02:54.526Z,12.95
2023-04-02T15:05:30.885Z,6.53
2023-04-02T15:08:05.590Z,4.68
2023-04-02T15:11:02.010Z,6.30
2023-04-02T15:13:38.495Z,9.38
2023-04-02T15:16:23.609Z,9.70
2023-04-02T15:18:53.374Z,8.80
2023-04-02T15:21:20.492Z,13.27
2023-04-02T15:24:06.183Z,7.38
2023-04-02T15:26:58.307Z,5.13
2023-04-02T15:29:43.279Z,8.38
2023-04-02T15:32:32.654Z,9.82
2023-04-02T15:35:21.619Z,9.13
2023-04-02T15:38:03.882Z,8.88
2023-04-02T15:40:38.266Z,6.82
2023-04-02T15:43:21.325Z,5.10
2023-04-02T15:46:08.491Z,4.93
2023-04-02T15:49:06.256Z,6.85
2023-04-02T15:54:37.528Z,6.05
2023-04-02T15:57:11.000Z,9.70
2023-04-02T15:59:38.065Z,9.60
2023-04-02T16:02:39.587Z,7.93
2023-04-02T16:05:12.911Z,9.77
2023-04-02T16:08:07.100Z,8.85
2023-04-02T16:10:42.433Z,7.80
2023-04-02T16:13:19.197Z,5.63
2023-04-02T16:16:21.093Z,6.60
2023-04-02T16:19:17.255Z,5.13
2023-04-02T16:22:17.773Z,5.07
2023-04-02T16:24:48.699Z,26.13
2023-04-02T16:27:39.759Z,11.35
2023-04-02T16:30:22.563Z,5.88
2023-04-02T16:33:24.733Z,9.93
2023-04-02T16:36:04.594Z,4.82
2023-04-02T16:38:57.246Z,6.60
2023-04-02T16:41:41.472Z,4.05
2023-04-02T16:44:26.614Z,3.90
2023-04-02T16:47:21.844Z,5.13
2023-04-02T16:49:57.592Z,3.60
2023-04-02T16:52:54.402Z,5.88
2023-04-02T16:55:46.294Z,6.43
2023-04-02T16:58:31.834Z,5.85
2023-04-02T17:01:17.233Z,6.10
2023-04-02T17:04:05.018Z,4.25
2023-04-02T17:06:41.789Z,4.05
2023-04-02T17:09:27.691Z,21.38
2023-04-02T17:12:30.601Z,11.65
2023-04-02T17:15:24.738Z,5.75
2023-04-02T17:17:58.277Z,5.20
2023-04-02T17:20:26.895Z,4.82
2023-04-02T17:22:56.079Z,7.35
2023-04-02T17:25:34.207Z,5.85
2023-04-02T17:28:02.884Z,6.25
2023-04-02T17:30:46.935Z,6.00
2023-04-02T17:33:16.938Z,6.47
2023-04-02T17:36:07.824Z,6.47
2023-04-02T17:38:55.524Z,5.35
2023-04-02T17:41:36.543Z,6.55
2023-04-02T17:44:03.563Z,4.47
2023-04-02T17:46:54.825Z,4.75
2023-04-02T17:49:36.524Z,5.22
2023-04-02T17:52:31.414Z,6.93
2023-04-02T17:55:13.258Z,7.30
2023-04-02T17:58:01.549Z,6.32
2023-04-02T18:00:37.815Z,6.45
2023-04-02T18:03:36.565Z,6.20
2023-04-02T18:06:15.827Z,5.65
2023-04-02T18:09:04.444Z,7.18
2023-04-02T18:12:00.561Z,4.63
2023-04-02T18:14:48.277Z,5.43
2023-04-02T18:17:25.956Z,5.72
2023-04-02T18:20:15.127Z,10.70
2023-04-02T18:23:29.674Z,4.20
2023-04-02T18:26:23.595Z,4.40
2023-04-02T18:29:19.301Z,5.05
2023-04-02T18:32:04.567Z,7.57
2023-04-02T18:34:44.902Z,7.18
2023-04-02T18:37:43.722Z,6.68
2023-04-02T18:40:32.173Z,5.80
2023-04-02T18:43:27.353Z,5.40
2023-04-02T18:46:08.884Z,5.65
2023-04-02T18:48:42.584Z,7.57
2023-04-02T18:51:22.029Z,5.13
2023-04-02T18:53:55.405Z,3.42
2023-04-02T18:56:23.515Z,4.05
2023-04-02T18:59:22.293Z,5.50
2023-04-02T19:01:52.356Z,7.65
2023-04-02T19:04:26.498Z,6.25
2023-04-02T19:07:11.604Z,7.53
2023-04-02T19:09:44.185Z,4.80
2023-04-02T19:12:20.106Z,3.17
2023-04-02T19:14:50.917Z,5.07
2023-04-02T19:17:36.099Z,4.00
2023-04-02T19:20:18.604Z,4.68
2023-04-02T19:23:00.874Z,5.50
2023-04-02T19:25:43.387Z,4.28
2023-04-02T19:28:16.204Z,5.07
2023-04-02T19:30:57.287Z,3.75
2023-04-02T19:33:48.002Z,4.05
2023-04-02T19:36:36.606Z,4.30
2023-04-02T19:39:31.445Z,4.65
2023-04-02T19:42:19.396Z,3.40
2023-04-02T19:44:50.035Z,4.75
2023-04-02T19:47:18.759Z,6.20
2023-04-02T19:49:46.040Z,2.65
2023-04-02T19:52:13.400Z,4.90
2023-04-02T19:54:40.654Z,4.60
2023-04-02T19:57:09.987Z,2.95
2023-04-02T19:59:37.065Z,3.60
2023-04-02T20:02:07.080Z,3.75
2023-04-02T20:04:34.618Z,2.85
2023-04-02T20:07:02.386Z,3.63
2023-04-02T20:09:29.868Z,3.75
2023-04-02T20:11:57.153Z,3.78
2023-04-02T20:14:24.245Z,4.75
2023-04-02T20:16:51.953Z,4.50
2023-04-02T20:19:19.522Z,5.18
2023-04-02T20:21:46.924Z,3.47
2023-04-02T20:24:13.937Z,4.35
2023-04-02T20:26:41.349Z,3.55
2023-04-02T20:29:08.456Z,4.38
2023-04-02T20:31:36.358Z,4.78
2023-04-02T20:34:05.692Z,5.82
2023-04-02T20:36:33.299Z,6.93
2023-04-02T20:39:00.301Z,5.25
2023-04-02T20:41:27.861Z,12.25
2023-04-02T20:43:55.013Z,4.18
2023-04-02T20:46:22.896Z,6.88
2023-04-02T20:48:50.042Z,8.10
2023-04-02T20:51:17.515Z,4.47
2023-04-02T20:53:44.797Z,5.43
2023-04-02T20:56:15.418Z,5.95
2023-04-02T20:58:43.905Z,8.90
2023-04-02T21:01:24.393Z,3.58
2023-04-02T21:03:57.529Z,4.88
2023-04-02T21:06:27.541Z,4.35
2023-04-02T21:08:54.638Z,5.55
2023-04-02T21:11:22.507Z,4.88
2023-04-02T21:13:50.499Z,5.63
2023-04-02T21:16:20.996Z,4.95
2023-04-02T21:18:50.770Z,4.05
2023-04-02T21:21:19.029Z,4.85
2023-04-02T21:23:46.488Z,4.25
2023-04-02T21:26:17.061Z,5.93
2023-04-02T21:28:45.323Z,6.45
2023-04-02T21:31:16.251Z,5.47
2023-04-02T21:33:46.350Z,5.07
2023-04-02T21:36:16.831Z,7.50
2023-04-02T21:39:08.289Z,6.82
2023-04-02T21:41:38.827Z,5.95
2023-04-02T21:44:07.703Z,4.15
2023-04-02T21:46:38.629Z,4.78
2023-04-02T21:49:08.397Z,5.45
2023-04-02T21:51:37.563Z,5.28
2023-04-02T21:54:05.458Z,3.20
2023-04-02T21:56:35.640Z,5.75
2023-04-02T21:59:04.161Z,4.32
2023-04-02T22:01:35.083Z,7.70
2023-04-02T22:04:04.498Z,5.38
2023-04-02T22:06:36.663Z,4.85
2023-04-02T22:09:07.236Z,4.28
2023-04-02T22:11:39.252Z,3.33
2023-04-02T22:14:06.779Z,5.13
2023-04-02T22:16:35.605Z,7.80
2023-04-02T22:19:06.677Z,4.35
2023-04-02T22:21:35.272Z,4.05
2023-04-02T22:24:04.470Z,5.05
2023-04-02T22:26:33.494Z,4.40
2023-04-02T22:29:01.319Z,4.93
2023-04-02T22:31:31.751Z,4.57
2023-04-02T22:33:59.668Z,8.90
2023-04-02T22:36:29.490Z,6.38
2023-04-02T22:38:58.139Z,5.20
2023-04-02T22:41:28.006Z,5.07
2023-04-02T22:43:56.708Z,3.88
2023-04-02T22:46:25.748Z,7.00
2023-04-02T22:48:53.865Z,3.10
2023-04-02T22:51:22.900Z,4.35
2023-04-02T22:53:52.490Z,5.57
2023-04-02T22:56:22.912Z,8.38
2023-04-02T22:58:50.216Z,7.05
2023-04-02T23:01:27.231Z,5.47
2023-04-02T23:03:55.169Z,4.20
2023-04-02T23:06:23.596Z,4.32
2023-04-02T23:08:51.368Z,3.60
2023-04-02T23:11:27.565Z,4.97
2023-04-02T23:13:56.710Z,4.63
2023-04-02T23:16:27.143Z,3.72
2023-04-02T23:18:55.513Z,6.80
2023-04-02T23:21:23.979Z,5.20
2023-04-02T23:23:51.688Z,3.80
2023-04-02T23:26:30.656Z,3.15
2023-04-02T23:28:58.995Z,3.88
2023-04-02T23:31:26.406Z,6.20
2023-04-02T23:33:53.905Z,3.53
2023-04-02T23:36:29.678Z,4.10
2023-04-02T23:39:04.052Z,5.85
2023-04-02T23:41:32.009Z,3.38
2023-04-02T23:43:59.630Z,3.42
2023-04-02T23:46:28.161Z,4.22
2023-04-02T23:48:56.106Z,2.20
2023-04-02T23:51:24.460Z,5.85
2023-04-02T23:53:52.513Z,6.60
2023-04-02T23:56:20.834Z,3.35
2023-04-02T23:58:48.603Z,3.20
